sensor_id;sensor_type;location;lat;lon;timestamp;temperature;humidity
1534;DHT22;760;48.822;9.304;2023-08-06T04:04:38;14.30;99.90
1534;DHT22;760;48.822;9.304;2023-08-06T04:07:03;14.30;99.90
1534;DHT22;760;48.822;9.304;2023-08-06T04:09:29;14.30;99.90
1534;DHT22;760;48.822;9.304;2023-08-06T04:11:55;14.40;99.90
1534;DHT22;760;48.822;9.304;2023-08-06T04:14:21;14.40;99.90
1534;DHT22;760;48.822;9.304;2023-08-06T04:16:46;14.40;99.90
1534;DHT22;760;48.822;9.304;2023-08-06T04:19:12;14.40;99.90
1534;DHT22;760;48.822;9.304;2023-08-06T04:21:37;14.40;99.90
1534;DHT22;760;48.822;9.304;2023-08-06T04:24:03;14.40;99.90
1534;DHT22;760;48.822;9.304;2023-08-06T04:26:29;14.40;99.90
1534;DHT22;760;48.822;9.304;2023-08-06T04:28:54;14.40;99.90
1534;DHT22;760;48.822;9.304;2023-08-06T04:31:21;14.40;99.90
1534;DHT22;760;48.822;9.304;2023-08-06T04:33:47;14.40;99.90
1534;DHT22;760;48.822;9.304;2023-08-06T04:36:12;14.40;99.90
1534;DHT22;760;48.822;9.304;2023-08-06T04:38:38;14.40;99.90
1534;DHT22;760;48.822;9.304;2023-08-06T04:41:04;14.40;99.90
1534;DHT22;760;48.822;9.304;2023-08-06T04:43:29;14.40;99.90
1534;DHT22;760;48.822;9.304;2023-08-06T04:45:55;14.40;99.90
1534;DHT22;760;48.822;9.304;2023-08-06T04:48:22;14.40;99.90
1534;DHT22;760;48.822;9.304;2023-08-06T04:50:49;14.40;99.90
1534;DHT22;760;48.822;9.304;2023-08-06T04:53:15;14.40;99.90
1534;DHT22;760;48.822;9.304;2023-08-06T04:55:41;14.40;99.90
1534;DHT22;760;48.822;9.304;2023-08-06T04:58:07;14.40;99.90
1534;DHT22;760;48.822;9.304;2023-08-06T05:00:33;14.40;99.90
1534;DHT22;760;48.822;9.304;2023-08-06T05:03:02;14.50;99.90
1534;DHT22;760;48.822;9.304;2023-08-06T05:05:28;14.50;99.90
1534;DHT22;760;48.822;9.304;2023-08-06T05:07:55;14.50;99.90
1534;DHT22;760;48.822;9.304;2023-08-06T05:10:26;14.50;99.90
1534;DHT22;760;48.822;9.304;2023-08-06T05:12:52;14.50;99.90
1534;DHT22;760;48.822;9.304;2023-08-06T05:15:17;14.60;99.90
1534;DHT22;760;48.822;9.304;2023-08-06T05:17:43;14.60;99.90
1534;DHT22;760;48.822;9.304;2023-08-06T05:20:09;14.60;99.90
1534;DHT22;760;48.822;9.304;2023-08-06T05:22:35;14.70;99.90
1534;DHT22;760;48.822;9.304;2023-08-06T05:25:00;14.80;99.90
1534;DHT22;760;48.822;9.304;2023-08-06T05:27:26;14.80;99.90
1534;DHT22;760;48.822;9.304;2023-08-06T05:29:55;14.90;99.90
1534;DHT22;760;48.822;9.304;2023-08-06T05:32:21;15.00;99.90
1534;DHT22;760;48.822;9.304;2023-08-06T05:34:47;15.00;99.90
1534;DHT22;760;48.822;9.304;2023-08-06T05:37:13;15.00;99.90
1534;DHT22;760;48.822;9.304;2023-08-06T05:39:38;15.10;99.90
1534;DHT22;760;48.822;9.304;2023-08-06T05:42:04;15.10;99.90
1534;DHT22;760;48.822;9.304;2023-08-06T05:44:30;15.20;99.90
1534;DHT22;760;48.822;9.304;2023-08-06T05:46:56;15.30;99.90
1534;DHT22;760;48.822;9.304;2023-08-06T05:49:22;15.40;99.90
1534;DHT22;760;48.822;9.304;2023-08-06T05:51:47;15.50;99.90
1534;DHT22;760;48.822;9.304;2023-08-06T05:54:13;15.60;99.90
1534;DHT22;760;48.822;9.304;2023-08-06T05:56:39;15.70;99.90
1534;DHT22;760;48.822;9.304;2023-08-06T05:59:04;15.70;99.90
1534;DHT22;760;48.822;9.304;2023-08-06T06:01:30;15.80;99.90
1534;DHT22;760;48.822;9.304;2023-08-06T06:03:56;15.90;99.90
1534;DHT22;760;48.822;9.304;2023-08-06T06:06:21;15.90;99.90
1534;DHT22;760;48.822;9.304;2023-08-06T06:08:47;16.00;99.90
1534;DHT22;760;48.822;9.304;2023-08-06T06:11:12;16.00;99.90
1534;DHT22;760;48.822;9.304;2023-08-06T06:13:38;16.10;99.90
1534;DHT22;760;48.822;9.304;2023-08-06T06:16:04;16.10;99.90
1534;DHT22;760;48.822;9.304;2023-08-06T06:18:30;16.10;99.90
1534;DHT22;760;48.822;9.304;2023-08-06T06:20:56;16.10;99.90
1534;DHT22;760;48.822;9.304;2023-08-06T06:23:22;16.10;99.90
1534;DHT22;760;48.822;9.304;2023-08-06T06:25:49;16.10;99.90
1534;DHT22;760;48.822;9.304;2023-08-06T06:28:17;16.00;99.90
1534;DHT22;760;48.822;9.304;2023-08-06T06:30:43;16.00;99.90
1534;DHT22;760;48.822;9.304;2023-08-06T06:33:08;16.00;99.90
1534;DHT22;760;48.822;9.304;2023-08-06T06:35:34;16.00;99.90
1534;DHT22;760;48.822;9.304;2023-08-06T06:37:59;16.00;99.90
1534;DHT22;760;48.822;9.304;2023-08-06T06:40:25;16.00;99.90
1534;DHT22;760;48.822;9.304;2023-08-06T06:42:51;15.90;99.90
1534;DHT22;760;48.822;9.304;2023-08-06T06:45:17;15.80;99.90
1534;DHT22;760;48.822;9.304;2023-08-06T06:47:43;15.80;99.90
1534;DHT22;760;48.822;9.304;2023-08-06T06:50:08;15.80;99.90
1534;DHT22;760;48.822;9.304;2023-08-06T06:52:34;15.80;99.90
1534;DHT22;760;48.822;9.304;2023-08-06T06:55:00;15.90;99.90
1534;DHT22;760;48.822;9.304;2023-08-06T06:57:25;15.90;99.90
1534;DHT22;760;48.822;9.304;2023-08-06T06:59:51;16.00;99.90
1534;DHT22;760;48.822;9.304;2023-08-06T07:02:16;16.10;99.90
1534;DHT22;760;48.822;9.304;2023-08-06T07:04:42;16.10;99.90
1534;DHT22;760;48.822;9.304;2023-08-06T07:07:08;16.10;99.90
1534;DHT22;760;48.822;9.304;2023-08-06T07:09:34;16.20;99.90
1534;DHT22;760;48.822;9.304;2023-08-06T07:12:00;16.20;99.90
1534;DHT22;760;48.822;9.304;2023-08-06T07:14:28;16.20;99.90
1534;DHT22;760;48.822;9.304;2023-08-06T07:16:54;16.30;99.90
1534;DHT22;760;48.822;9.304;2023-08-06T07:19:19;16.30;99.90
1534;DHT22;760;48.822;9.304;2023-08-06T07:21:45;16.30;99.90
1534;DHT22;760;48.822;9.304;2023-08-06T07:24:11;16.40;99.90
1534;DHT22;760;48.822;9.304;2023-08-06T07:26:37;16.40;99.90
1534;DHT22;760;48.822;9.304;2023-08-06T07:29:03;16.40;99.90
1534;DHT22;760;48.822;9.304;2023-08-06T07:31:29;16.40;99.90
1534;DHT22;760;48.822;9.304;2023-08-06T07:33:54;16.40;99.90
1534;DHT22;760;48.822;9.304;2023-08-06T07:36:20;16.40;99.90
1534;DHT22;760;48.822;9.304;2023-08-06T07:38:46;16.50;99.90
1534;DHT22;760;48.822;9.304;2023-08-06T07:41:11;16.50;99.90
1534;DHT22;760;48.822;9.304;2023-08-06T07:43:37;16.40;99.90
1534;DHT22;760;48.822;9.304;2023-08-06T07:46:03;16.40;99.90
1534;DHT22;760;48.822;9.304;2023-08-06T07:48:28;16.30;99.90
1534;DHT22;760;48.822;9.304;2023-08-06T07:50:54;16.20;99.90
1534;DHT22;760;48.822;9.304;2023-08-06T07:53:21;16.20;99.90
1534;DHT22;760;48.822;9.304;2023-08-06T07:55:52;16.10;99.90
1534;DHT22;760;48.822;9.304;2023-08-06T07:58:22;16.10;99.90
1534;DHT22;760;48.822;9.304;2023-08-06T08:00:48;16.10;99.90
1534;DHT22;760;48.822;9.304;2023-08-06T08:03:14;16.20;99.90
1534;DHT22;760;48.822;9.304;2023-08-06T08:05:44;16.20;99.90
1534;DHT22;760;48.822;9.304;2023-08-06T08:08:09;16.30;99.90
1534;DHT22;760;48.822;9.304;2023-08-06T08:10:35;16.40;99.90
1534;DHT22;760;48.822;9.304;2023-08-06T08:13:05;16.40;99.90
1534;DHT22;760;48.822;9.304;2023-08-06T08:15:31;16.60;99.90
1534;DHT22;760;48.822;9.304;2023-08-06T08:17:58;16.70;99.90
1534;DHT22;760;48.822;9.304;2023-08-06T08:20:24;16.90;99.90
1534;DHT22;760;48.822;9.304;2023-08-06T08:22:49;17.10;99.90
1534;DHT22;760;48.822;9.304;2023-08-06T08:25:16;17.30;99.90
1534;DHT22;760;48.822;9.304;2023-08-06T08:27:42;17.50;99.90
1534;DHT22;760;48.822;9.304;2023-08-06T08:30:08;17.90;99.90
1534;DHT22;760;48.822;9.304;2023-08-06T08:32:33;18.50;99.90
1534;DHT22;760;48.822;9.304;2023-08-06T08:34:59;19.10;99.90
1534;DHT22;760;48.822;9.304;2023-08-06T08:37:25;19.80;99.90
1534;DHT22;760;48.822;9.304;2023-08-06T08:39:50;20.60;99.90
1534;DHT22;760;48.822;9.304;2023-08-06T08:42:17;21.20;99.90
1534;DHT22;760;48.822;9.304;2023-08-06T08:44:43;21.70;99.90
1534;DHT22;760;48.822;9.304;2023-08-06T08:47:10;21.90;99.90
1534;DHT22;760;48.822;9.304;2023-08-06T08:49:37;21.90;99.90
1534;DHT22;760;48.822;9.304;2023-08-06T08:52:04;21.60;99.90
1534;DHT22;760;48.822;9.304;2023-08-06T08:54:38;21.20;99.90
1534;DHT22;760;48.822;9.304;2023-08-06T08:57:04;20.90;99.90
1534;DHT22;760;48.822;9.304;2023-08-06T08:59:29;20.80;99.90
1534;DHT22;760;48.822;9.304;2023-08-06T09:01:56;20.70;99.90
1534;DHT22;760;48.822;9.304;2023-08-06T09:04:23;20.60;99.90
1534;DHT22;760;48.822;9.304;2023-08-06T09:06:50;20.40;99.90
1534;DHT22;760;48.822;9.304;2023-08-06T09:09:30;20.10;99.90
1534;DHT22;760;48.822;9.304;2023-08-06T09:12:01;19.80;99.90
1534;DHT22;760;48.822;9.304;2023-08-06T09:14:28;19.40;99.90
1534;DHT22;760;48.822;9.304;2023-08-06T09:16:54;19.10;99.90
1534;DHT22;760;48.822;9.304;2023-08-06T09:19:20;18.80;99.90
1534;DHT22;760;48.822;9.304;2023-08-06T09:21:46;18.70;99.90
1534;DHT22;760;48.822;9.304;2023-08-06T09:24:15;18.60;99.90
1534;DHT22;760;48.822;9.304;2023-08-06T09:26:42;18.70;99.90
1534;DHT22;760;48.822;9.304;2023-08-06T09:29:09;18.60;99.90
1534;DHT22;760;48.822;9.304;2023-08-06T09:31:50;18.60;99.90
1534;DHT22;760;48.822;9.304;2023-08-06T09:34:20;18.70;99.90
1534;DHT22;760;48.822;9.304;2023-08-06T09:36:48;18.90;99.90
1534;DHT22;760;48.822;9.304;2023-08-06T09:39:17;19.20;99.90
1534;DHT22;760;48.822;9.304;2023-08-06T09:41:44;19.50;99.90
1534;DHT22;760;48.822;9.304;2023-08-06T09:44:18;19.60;99.90
1534;DHT22;760;48.822;9.304;2023-08-06T09:47:00;19.60;99.90
1534;DHT22;760;48.822;9.304;2023-08-06T09:49:28;19.50;99.90
1534;DHT22;760;48.822;9.304;2023-08-06T09:52:05;19.30;99.90
1534;DHT22;760;48.822;9.304;2023-08-06T09:54:32;19.20;99.90
1534;DHT22;760;48.822;9.304;2023-08-06T09:57:01;19.00;99.90
1534;DHT22;760;48.822;9.304;2023-08-06T09:59:26;18.90;99.90
1534;DHT22;760;48.822;9.304;2023-08-06T10:01:54;18.80;99.90
1534;DHT22;760;48.822;9.304;2023-08-06T10:04:21;18.70;99.90
1534;DHT22;760;48.822;9.304;2023-08-06T10:06:47;18.60;99.90
1534;DHT22;760;48.822;9.304;2023-08-06T10:09:15;18.50;99.90
1534;DHT22;760;48.822;9.304;2023-08-06T10:11:42;18.60;99.90
1534;DHT22;760;48.822;9.304;2023-08-06T10:14:16;18.70;99.90
1534;DHT22;760;48.822;9.304;2023-08-06T10:16:44;18.70;99.90
1534;DHT22;760;48.822;9.304;2023-08-06T10:19:11;18.70;99.90
1534;DHT22;760;48.822;9.304;2023-08-06T10:21:40;18.60;99.90
1534;DHT22;760;48.822;9.304;2023-08-06T10:24:09;18.60;99.90
1534;DHT22;760;48.822;9.304;2023-08-06T10:26:37;18.60;99.90
1534;DHT22;760;48.822;9.304;2023-08-06T10:29:35;18.70;99.90
1534;DHT22;760;48.822;9.304;2023-08-06T10:32:01;18.90;99.90
1534;DHT22;760;48.822;9.304;2023-08-06T10:34:53;19.00;99.90
1534;DHT22;760;48.822;9.304;2023-08-06T10:37:20;19.10;99.90
1534;DHT22;760;48.822;9.304;2023-08-06T10:39:53;19.00;99.90
1534;DHT22;760;48.822;9.304;2023-08-06T10:42:20;18.90;99.90
1534;DHT22;760;48.822;9.304;2023-08-06T10:47:39;18.90;99.90
1534;DHT22;760;48.822;9.304;2023-08-06T10:50:07;18.90;99.90
1534;DHT22;760;48.822;9.304;2023-08-06T10:52:34;18.80;99.90
1534;DHT22;760;48.822;9.304;2023-08-06T10:54:59;18.80;99.90
1534;DHT22;760;48.822;9.304;2023-08-06T10:57:25;18.80;99.90
1534;DHT22;760;48.822;9.304;2023-08-06T10:59:51;18.80;99.90
1534;DHT22;760;48.822;9.304;2023-08-06T11:02:16;18.80;99.90
1534;DHT22;760;48.822;9.304;2023-08-06T11:04:42;18.90;99.90
1534;DHT22;760;48.822;9.304;2023-08-06T11:07:08;18.90;99.90
1534;DHT22;760;48.822;9.304;2023-08-06T11:09:33;18.80;99.90
1534;DHT22;760;48.822;9.304;2023-08-06T11:11:59;18.70;99.90
1534;DHT22;760;48.822;9.304;2023-08-06T11:14:25;18.50;99.90
1534;DHT22;760;48.822;9.304;2023-08-06T11:16:50;18.30;99.90
1534;DHT22;760;48.822;9.304;2023-08-06T11:19:16;18.00;99.90
1534;DHT22;760;48.822;9.304;2023-08-06T11:21:43;17.70;99.90
1534;DHT22;760;48.822;9.304;2023-08-06T11:24:12;17.50;99.90
1534;DHT22;760;48.822;9.304;2023-08-06T11:26:38;17.50;99.90
1534;DHT22;760;48.822;9.304;2023-08-06T11:29:05;17.40;99.90
1534;DHT22;760;48.822;9.304;2023-08-06T11:31:31;17.30;99.90
1534;DHT22;760;48.822;9.304;2023-08-06T11:33:56;17.30;99.90
1534;DHT22;760;48.822;9.304;2023-08-06T11:36:37;17.30;99.90
1534;DHT22;760;48.822;9.304;2023-08-06T11:39:05;17.30;99.90
1534;DHT22;760;48.822;9.304;2023-08-06T11:41:34;17.40;99.90
1534;DHT22;760;48.822;9.304;2023-08-06T11:44:01;17.20;99.90
1534;DHT22;760;48.822;9.304;2023-08-06T11:46:27;17.20;99.90
1534;DHT22;760;48.822;9.304;2023-08-06T11:48:58;17.10;99.90
1534;DHT22;760;48.822;9.304;2023-08-06T11:51:25;17.00;99.90
1534;DHT22;760;48.822;9.304;2023-08-06T11:53:59;17.00;99.90
1534;DHT22;760;48.822;9.304;2023-08-06T11:56:25;16.90;99.90
1534;DHT22;760;48.822;9.304;2023-08-06T11:58:52;16.90;99.90
1534;DHT22;760;48.822;9.304;2023-08-06T12:01:18;16.90;99.90
1534;DHT22;760;48.822;9.304;2023-08-06T12:03:44;16.90;99.90
1534;DHT22;760;48.822;9.304;2023-08-06T12:06:10;16.90;99.90
1534;DHT22;760;48.822;9.304;2023-08-06T12:08:36;16.90;99.90
1534;DHT22;760;48.822;9.304;2023-08-06T12:11:03;16.90;99.90
1534;DHT22;760;48.822;9.304;2023-08-06T12:13:29;16.80;99.90
1534;DHT22;760;48.822;9.304;2023-08-06T12:15:54;16.80;99.90
1534;DHT22;760;48.822;9.304;2023-08-06T12:18:22;16.80;99.90
1534;DHT22;760;48.822;9.304;2023-08-06T12:20:48;16.60;99.90
1534;DHT22;760;48.822;9.304;2023-08-06T12:23:14;16.50;99.90
1534;DHT22;760;48.822;9.304;2023-08-06T12:25:41;16.30;99.90
1534;DHT22;760;48.822;9.304;2023-08-06T12:28:07;16.10;99.90
1534;DHT22;760;48.822;9.304;2023-08-06T12:30:33;16.00;99.90
1534;DHT22;760;48.822;9.304;2023-08-06T12:32:59;16.00;99.90
1534;DHT22;760;48.822;9.304;2023-08-06T12:35:25;15.90;99.90
1534;DHT22;760;48.822;9.304;2023-08-06T12:37:51;15.90;99.90
1534;DHT22;760;48.822;9.304;2023-08-06T12:40:20;15.90;99.90
1534;DHT22;760;48.822;9.304;2023-08-06T12:42:45;15.90;99.90
1534;DHT22;760;48.822;9.304;2023-08-06T12:45:11;16.00;99.90
1534;DHT22;760;48.822;9.304;2023-08-06T12:47:37;16.00;99.90
1534;DHT22;760;48.822;9.304;2023-08-06T12:50:03;16.00;99.90
1534;DHT22;760;48.822;9.304;2023-08-06T12:52:28;16.10;99.90
1534;DHT22;760;48.822;9.304;2023-08-06T12:54:54;16.20;99.90
1534;DHT22;760;48.822;9.304;2023-08-06T12:57:20;16.30;99.90
1534;DHT22;760;48.822;9.304;2023-08-06T12:59:45;16.50;99.90
1534;DHT22;760;48.822;9.304;2023-08-06T13:02:11;16.60;99.90
1534;DHT22;760;48.822;9.304;2023-08-06T13:04:37;16.80;99.90
1534;DHT22;760;48.822;9.304;2023-08-06T13:07:02;16.90;99.90
1534;DHT22;760;48.822;9.304;2023-08-06T13:09:28;16.90;99.90
1534;DHT22;760;48.822;9.304;2023-08-06T13:11:53;16.90;99.90
1534;DHT22;760;48.822;9.304;2023-08-06T13:14:19;17.00;99.90
1534;DHT22;760;48.822;9.304;2023-08-06T13:16:45;17.00;99.90
1534;DHT22;760;48.822;9.304;2023-08-06T13:19:10;17.10;99.90
1534;DHT22;760;48.822;9.304;2023-08-06T13:24:07;17.30;99.90
1534;DHT22;760;48.822;9.304;2023-08-06T13:26:33;17.40;99.90
1534;DHT22;760;48.822;9.304;2023-08-06T13:28:59;17.50;99.90
1534;DHT22;760;48.822;9.304;2023-08-06T13:31:26;17.60;99.90
1534;DHT22;760;48.822;9.304;2023-08-06T13:33:52;17.80;99.90
1534;DHT22;760;48.822;9.304;2023-08-06T13:36:19;18.00;99.90
1534;DHT22;760;48.822;9.304;2023-08-06T13:38:45;18.00;99.90
1534;DHT22;760;48.822;9.304;2023-08-06T13:41:10;18.00;99.90
1534;DHT22;760;48.822;9.304;2023-08-06T13:43:36;18.00;99.90
1534;DHT22;760;48.822;9.304;2023-08-06T13:46:02;18.00;99.90
1534;DHT22;760;48.822;9.304;2023-08-06T13:48:27;18.00;99.90
1534;DHT22;760;48.822;9.304;2023-08-06T13:50:53;18.10;99.90
1534;DHT22;760;48.822;9.304;2023-08-06T13:53:18;18.10;99.90
1534;DHT22;760;48.822;9.304;2023-08-06T13:55:44;18.10;99.90
1534;DHT22;760;48.822;9.304;2023-08-06T13:58:10;18.10;99.90
1534;DHT22;760;48.822;9.304;2023-08-06T14:00:36;18.20;99.90
1534;DHT22;760;48.822;9.304;2023-08-06T14:03:02;18.20;99.90
1534;DHT22;760;48.822;9.304;2023-08-06T14:05:27;18.20;99.90
1534;DHT22;760;48.822;9.304;2023-08-06T14:07:53;18.20;99.90
1534;DHT22;760;48.822;9.304;2023-08-06T14:10:18;18.30;99.90
1534;DHT22;760;48.822;9.304;2023-08-06T14:12:44;18.30;99.90
1534;DHT22;760;48.822;9.304;2023-08-06T14:15:11;18.30;99.90
1534;DHT22;760;48.822;9.304;2023-08-06T14:17:36;18.30;99.90
1534;DHT22;760;48.822;9.304;2023-08-06T14:20:02;18.20;99.90
1534;DHT22;760;48.822;9.304;2023-08-06T14:22:32;18.10;99.90
1534;DHT22;760;48.822;9.304;2023-08-06T14:24:58;18.00;99.90
1534;DHT22;760;48.822;9.304;2023-08-06T14:27:24;17.80;99.90
1534;DHT22;760;48.822;9.304;2023-08-06T14:29:50;17.70;99.90
1534;DHT22;760;48.822;9.304;2023-08-06T14:32:15;17.60;99.90
1534;DHT22;760;48.822;9.304;2023-08-06T14:34:43;17.60;99.90
1534;DHT22;760;48.822;9.304;2023-08-06T14:37:09;17.60;99.90
1534;DHT22;760;48.822;9.304;2023-08-06T14:39:35;17.60;99.90
1534;DHT22;760;48.822;9.304;2023-08-06T14:42:00;17.60;99.90
1534;DHT22;760;48.822;9.304;2023-08-06T14:44:26;17.70;99.90
1534;DHT22;760;48.822;9.304;2023-08-06T14:46:51;17.80;99.90
1534;DHT22;760;48.822;9.304;2023-08-06T14:49:17;17.80;99.90
1534;DHT22;760;48.822;9.304;2023-08-06T14:51:43;17.80;99.90
1534;DHT22;760;48.822;9.304;2023-08-06T14:54:08;17.90;99.90
1534;DHT22;760;48.822;9.304;2023-08-06T14:56:34;17.90;99.90
1534;DHT22;760;48.822;9.304;2023-08-06T14:58:59;17.90;99.90
1534;DHT22;760;48.822;9.304;2023-08-06T15:01:25;17.70;99.90
1534;DHT22;760;48.822;9.304;2023-08-06T15:03:50;17.60;99.90
1534;DHT22;760;48.822;9.304;2023-08-06T15:06:16;17.50;99.90
1534;DHT22;760;48.822;9.304;2023-08-06T15:08:41;17.50;99.90
1534;DHT22;760;48.822;9.304;2023-08-06T15:11:09;17.50;99.90
1534;DHT22;760;48.822;9.304;2023-08-06T15:13:35;17.60;99.90
1534;DHT22;760;48.822;9.304;2023-08-06T15:16:00;17.60;99.90
1534;DHT22;760;48.822;9.304;2023-08-06T15:18:26;17.60;99.90
1534;DHT22;760;48.822;9.304;2023-08-06T15:20:51;17.60;99.90
1534;DHT22;760;48.822;9.304;2023-08-06T15:23:17;17.40;99.90
1534;DHT22;760;48.822;9.304;2023-08-06T15:25:42;17.40;99.90
1534;DHT22;760;48.822;9.304;2023-08-06T15:28:08;17.30;99.90
1534;DHT22;760;48.822;9.304;2023-08-06T15:30:33;17.20;99.90
1534;DHT22;760;48.822;9.304;2023-08-06T15:32:59;17.20;99.90
1534;DHT22;760;48.822;9.304;2023-08-06T15:35:25;17.10;99.90
1534;DHT22;760;48.822;9.304;2023-08-06T15:37:50;17.10;99.90
1534;DHT22;760;48.822;9.304;2023-08-06T15:40:16;17.10;99.90
1534;DHT22;760;48.822;9.304;2023-08-06T15:42:41;17.10;99.90
1534;DHT22;760;48.822;9.304;2023-08-06T15:45:07;17.10;99.90
1534;DHT22;760;48.822;9.304;2023-08-06T15:47:33;17.00;99.90
1534;DHT22;760;48.822;9.304;2023-08-06T15:50:06;17.00;99.90
1534;DHT22;760;48.822;9.304;2023-08-06T15:52:33;17.00;99.90
1534;DHT22;760;48.822;9.304;2023-08-06T15:54:59;17.00;99.90
1534;DHT22;760;48.822;9.304;2023-08-06T15:57:28;17.00;99.90
1534;DHT22;760;48.822;9.304;2023-08-06T15:59:54;17.00;99.90
1534;DHT22;760;48.822;9.304;2023-08-06T16:02:20;17.00;99.90
1534;DHT22;760;48.822;9.304;2023-08-06T16:04:45;17.00;99.90
1534;DHT22;760;48.822;9.304;2023-08-06T16:07:11;17.00;99.90
1534;DHT22;760;48.822;9.304;2023-08-06T16:09:36;17.00;99.90
1534;DHT22;760;48.822;9.304;2023-08-06T16:12:02;17.00;99.90
1534;DHT22;760;48.822;9.304;2023-08-06T16:14:29;17.00;99.90
1534;DHT22;760;48.822;9.304;2023-08-06T16:16:54;17.00;99.90
1534;DHT22;760;48.822;9.304;2023-08-06T16:19:20;17.00;99.90
1534;DHT22;760;48.822;9.304;2023-08-06T16:21:45;17.00;99.90
1534;DHT22;760;48.822;9.304;2023-08-06T16:24:11;16.90;99.90
1534;DHT22;760;48.822;9.304;2023-08-06T16:26:37;16.90;99.90
1534;DHT22;760;48.822;9.304;2023-08-06T16:29:02;16.80;99.90
1534;DHT22;760;48.822;9.304;2023-08-06T16:31:28;16.70;99.90
1534;DHT22;760;48.822;9.304;2023-08-06T16:33:54;16.60;99.90
1534;DHT22;760;48.822;9.304;2023-08-06T16:36:20;16.60;99.90
1534;DHT22;760;48.822;9.304;2023-08-06T16:38:45;16.50;99.90
1534;DHT22;760;48.822;9.304;2023-08-06T16:41:11;16.50;99.90
1534;DHT22;760;48.822;9.304;2023-08-06T16:43:39;16.40;99.90
1534;DHT22;760;48.822;9.304;2023-08-06T16:46:05;16.30;99.90
1534;DHT22;760;48.822;9.304;2023-08-06T16:48:31;16.20;99.90
1534;DHT22;760;48.822;9.304;2023-08-06T16:51:00;16.20;99.90
1534;DHT22;760;48.822;9.304;2023-08-06T16:53:26;16.10;99.90
1534;DHT22;760;48.822;9.304;2023-08-06T16:55:53;16.00;99.90
1534;DHT22;760;48.822;9.304;2023-08-06T16:58:19;15.90;99.90
1534;DHT22;760;48.822;9.304;2023-08-06T17:00:45;15.70;99.90
1534;DHT22;760;48.822;9.304;2023-08-06T17:03:11;15.50;99.90
1534;DHT22;760;48.822;9.304;2023-08-06T17:05:37;15.40;99.90
1534;DHT22;760;48.822;9.304;2023-08-06T17:08:02;15.10;99.90
1534;DHT22;760;48.822;9.304;2023-08-06T17:10:32;15.00;99.90
1534;DHT22;760;48.822;9.304;2023-08-06T17:12:58;14.90;99.90
1534;DHT22;760;48.822;9.304;2023-08-06T17:15:24;14.80;99.90
1534;DHT22;760;48.822;9.304;2023-08-06T17:17:49;14.70;99.90
1534;DHT22;760;48.822;9.304;2023-08-06T17:20:15;14.70;99.90
1534;DHT22;760;48.822;9.304;2023-08-06T17:22:41;14.60;99.90
1534;DHT22;760;48.822;9.304;2023-08-06T17:25:07;14.60;99.90
1534;DHT22;760;48.822;9.304;2023-08-06T17:27:33;14.70;99.90
1534;DHT22;760;48.822;9.304;2023-08-06T17:29:59;14.70;99.90
1534;DHT22;760;48.822;9.304;2023-08-06T17:32:24;14.70;99.90
1534;DHT22;760;48.822;9.304;2023-08-06T17:34:50;14.70;99.90
1534;DHT22;760;48.822;9.304;2023-08-06T17:37:15;14.80;99.90
1534;DHT22;760;48.822;9.304;2023-08-06T17:39:41;14.80;99.90
1534;DHT22;760;48.822;9.304;2023-08-06T17:42:07;14.80;99.90
1534;DHT22;760;48.822;9.304;2023-08-06T17:44:36;14.80;99.90
1534;DHT22;760;48.822;9.304;2023-08-06T17:47:02;14.80;99.90
1534;DHT22;760;48.822;9.304;2023-08-06T17:49:28;14.80;99.90
1534;DHT22;760;48.822;9.304;2023-08-06T17:51:54;14.80;99.90
1534;DHT22;760;48.822;9.304;2023-08-06T17:54:19;14.80;99.90
1534;DHT22;760;48.822;9.304;2023-08-06T17:56:45;14.80;99.90
1534;DHT22;760;48.822;9.304;2023-08-06T17:59:10;14.80;99.90
1534;DHT22;760;48.822;9.304;2023-08-06T18:01:36;14.80;99.90
1534;DHT22;760;48.822;9.304;2023-08-06T18:04:02;14.90;99.90
1534;DHT22;760;48.822;9.304;2023-08-06T18:06:27;14.90;99.90
1534;DHT22;760;48.822;9.304;2023-08-06T18:08:53;14.90;99.90
1534;DHT22;760;48.822;9.304;2023-08-06T18:11:18;14.90;99.90
1534;DHT22;760;48.822;9.304;2023-08-06T18:13:44;14.90;99.90
1534;DHT22;760;48.822;9.304;2023-08-06T18:16:09;14.90;99.90
1534;DHT22;760;48.822;9.304;2023-08-06T18:18:35;14.90;99.90
1534;DHT22;760;48.822;9.304;2023-08-06T18:21:00;14.90;99.90
1534;DHT22;760;48.822;9.304;2023-08-06T18:23:26;14.90;99.90
1534;DHT22;760;48.822;9.304;2023-08-06T18:25:52;14.80;99.90
1534;DHT22;760;48.822;9.304;2023-08-06T18:28:22;14.90;99.90
1534;DHT22;760;48.822;9.304;2023-08-06T18:30:48;14.80;99.90
1534;DHT22;760;48.822;9.304;2023-08-06T18:33:13;14.80;99.90
1534;DHT22;760;48.822;9.304;2023-08-06T18:35:42;14.80;99.90
1534;DHT22;760;48.822;9.304;2023-08-06T18:38:08;14.70;99.90
1534;DHT22;760;48.822;9.304;2023-08-06T18:40:33;14.70;99.90
1534;DHT22;760;48.822;9.304;2023-08-06T18:42:59;14.70;99.90
1534;DHT22;760;48.822;9.304;2023-08-06T18:45:25;14.70;99.90
1534;DHT22;760;48.822;9.304;2023-08-06T18:47:51;14.70;99.90
1534;DHT22;760;48.822;9.304;2023-08-06T18:50:17;14.70;99.90
1534;DHT22;760;48.822;9.304;2023-08-06T18:52:43;14.70;99.90
1534;DHT22;760;48.822;9.304;2023-08-06T18:55:09;14.60;99.90
1534;DHT22;760;48.822;9.304;2023-08-06T18:57:34;14.60;99.90
1534;DHT22;760;48.822;9.304;2023-08-06T19:00:00;14.50;99.90
1534;DHT22;760;48.822;9.304;2023-08-06T19:02:25;14.50;99.90
1534;DHT22;760;48.822;9.304;2023-08-06T19:04:54;14.50;99.90
1534;DHT22;760;48.822;9.304;2023-08-06T19:07:20;14.40;99.90
1534;DHT22;760;48.822;9.304;2023-08-06T19:09:45;14.40;99.90
1534;DHT22;760;48.822;9.304;2023-08-06T19:12:12;14.40;99.90
1534;DHT22;760;48.822;9.304;2023-08-06T19:14:43;14.30;99.90
1534;DHT22;760;48.822;9.304;2023-08-06T19:17:09;14.30;99.90
1534;DHT22;760;48.822;9.304;2023-08-06T19:19:34;14.30;99.90
1534;DHT22;760;48.822;9.304;2023-08-06T19:22:00;14.30;99.90
1534;DHT22;760;48.822;9.304;2023-08-06T19:24:25;14.30;99.90
1534;DHT22;760;48.822;9.304;2023-08-06T19:26:51;14.40;99.90
1534;DHT22;760;48.822;9.304;2023-08-06T19:29:17;14.40;99.90
1534;DHT22;760;48.822;9.304;2023-08-06T19:31:42;14.40;99.90
1534;DHT22;760;48.822;9.304;2023-08-06T19:34:08;14.40;99.90
1534;DHT22;760;48.822;9.304;2023-08-06T19:36:34;14.40;99.90
1534;DHT22;760;48.822;9.304;2023-08-06T19:39:00;14.40;99.90
1534;DHT22;760;48.822;9.304;2023-08-06T19:41:25;14.50;99.90
1534;DHT22;760;48.822;9.304;2023-08-06T19:43:51;14.50;99.90
1534;DHT22;760;48.822;9.304;2023-08-06T19:46:17;14.50;99.90
1534;DHT22;760;48.822;9.304;2023-08-06T19:48:42;14.50;99.90
1534;DHT22;760;48.822;9.304;2023-08-06T19:51:08;14.50;99.90
1534;DHT22;760;48.822;9.304;2023-08-06T19:53:34;14.60;99.90
1534;DHT22;760;48.822;9.304;2023-08-06T19:56:01;14.60;99.90
1534;DHT22;760;48.822;9.304;2023-08-06T19:58:29;14.60;99.90
1534;DHT22;760;48.822;9.304;2023-08-06T20:00:55;14.60;99.90
1534;DHT22;760;48.822;9.304;2023-08-06T20:03:21;14.60;99.90
1534;DHT22;760;48.822;9.304;2023-08-06T20:05:47;14.70;99.90
1534;DHT22;760;48.822;9.304;2023-08-06T20:08:13;14.70;99.90
1534;DHT22;760;48.822;9.304;2023-08-06T20:10:38;14.70;99.90
1534;DHT22;760;48.822;9.304;2023-08-06T20:13:07;14.70;99.90
1534;DHT22;760;48.822;9.304;2023-08-06T20:15:36;14.70;99.90
1534;DHT22;760;48.822;9.304;2023-08-06T20:18:01;14.70;99.90
1534;DHT22;760;48.822;9.304;2023-08-06T20:20:27;14.70;99.90